Time;durP1;ratioP1;P1;durP2;ratioP2;P2;SDS_P1;SDS_P2;PMS_P1;PMS_P2;Temp;Humidity;BMP_temperature;BMP_pressure;BME280_temperature;BME280_humidity;BME280_pressure;Samples;Min_cycle;Max_cycle;Signal;HPM_P1;HPM_P2
2022/01/06 00:00:34;;;;;;;4.60;1.85;;;;;;;9.39;54.27;101008.09;5048978;28;20226;-77
2022/01/06 00:03:00;;;;;;;7.43;1.88;;;;;;;9.38;54.06;101015.38;5048766;28;20053;-77
2022/01/06 00:05:27;;;;;;;8.20;2.33;;;;;;;9.37;54.35;101001.94;5048778;28;20080;-78
2022/01/06 00:07:54;;;;;;;5.30;1.75;;;;;;;9.35;54.18;101012.84;5052814;28;20041;-78
2022/01/06 00:10:21;;;;;;;6.82;2.63;;;;;;;9.35;54.40;101012.84;5050849;28;20056;-77
2022/01/06 00:13:11;;;;;;;5.18;2.10;;;;;;;9.35;54.24;101023.69;5042382;28;20061;-77
2022/01/06 00:16:06;;;;;;;6.40;2.15;;;;;;;9.32;53.86;101014.84;5061825;28;20093;-77
2022/01/06 00:18:38;;;;;;;6.43;2.10;;;;;;;9.31;54.17;101027.53;5042824;28;20049;-77
2022/01/06 00:23:50;;;;;;;6.22;2.15;;;;;;;9.30;54.34;101030.34;5049201;28;20059;-77
2022/01/06 00:26:17;;;;;;;6.22;2.00;;;;;;;9.30;54.01;101025.81;5059070;28;20076;-78
2022/01/06 00:28:43;;;;;;;7.00;2.17;;;;;;;9.32;54.36;101036.53;5047674;28;20488;-78
2022/01/06 00:31:10;;;;;;;7.13;2.47;;;;;;;9.30;54.23;101036.66;5053355;28;20389;-77
2022/01/06 00:33:36;;;;;;;6.97;2.40;;;;;;;9.30;54.18;101038.47;5048687;28;20140;-78
2022/01/06 00:36:03;;;;;;;6.90;2.03;;;;;;;9.28;54.47;101035.84;5050930;28;20132;-77
2022/01/06 00:38:30;;;;;;;9.05;2.45;;;;;;;9.28;54.49;101054.81;5043806;28;20069;-78
2022/01/06 00:40:58;;;;;;;5.85;2.22;;;;;;;9.28;54.58;101051.22;5054895;28;20101;-77
2022/01/06 00:43:25;;;;;;;9.75;3.08;;;;;;;9.29;54.37;101055.69;5048101;28;20057;-77
2022/01/06 00:45:52;;;;;;;7.63;2.40;;;;;;;9.28;54.41;101062.06;5055301;28;20185;-77
2022/01/06 00:48:18;;;;;;;5.55;2.40;;;;;;;9.28;54.68;101054.81;5048861;28;20057;-77
2022/01/06 00:50:45;;;;;;;6.03;2.70;;;;;;;9.29;54.18;101052.97;5060185;28;20545;-77
2022/01/06 00:53:12;;;;;;;7.80;2.55;;;;;;;9.28;54.30;101060.25;5034714;28;20478;-77
2022/01/06 00:55:39;;;;;;;8.10;2.30;;;;;;;9.29;54.15;101069.25;5058093;28;20048;-77
2022/01/06 00:58:07;;;;;;;6.95;2.70;;;;;;;9.29;54.47;101074.66;5035999;28;20077;-78
2022/01/06 01:00:41;;;;;;;7.45;2.70;;;;;;;9.28;54.12;101068.38;5056070;28;20088;-77
2022/01/06 01:03:15;;;;;;;6.78;2.92;;;;;;;9.28;54.12;101072.91;5037393;28;20068;-77
2022/01/06 01:05:42;;;;;;;;;;;;;;;9.05;54.82;101069.69;5055257;28;20059;-77
2022/01/06 01:08:10;;;;;;;7.25;3.53;;;;;;;9.20;54.22;101067.94;5049271;28;20383;-77
2022/01/06 01:10:37;;;;;;;7.07;3.42;;;;;;;9.21;54.10;101053.44;5050167;28;21090;-77
2022/01/06 01:13:08;;;;;;;7.65;3.42;;;;;;;9.21;54.15;101066.97;5044349;28;20095;-77
2022/01/06 01:15:42;;;;;;;7.30;3.10;;;;;;;9.19;53.97;101068.91;5047987;28;20061;-77
2022/01/06 01:18:10;;;;;;;7.03;2.92;;;;;;;9.18;54.12;101072.56;5054732;28;20048;-77
2022/01/06 01:20:37;;;;;;;7.00;2.72;;;;;;;9.17;54.22;101084.34;5055672;28;20055;-78
2022/01/06 01:23:03;;;;;;;7.45;2.70;;;;;;;9.17;54.00;101084.34;5057280;28;20457;-78
2022/01/06 01:25:30;;;;;;;6.07;2.28;;;;;;;9.16;54.18;101079.91;5051775;28;20102;-77
2022/01/06 01:27:57;;;;;;;7.47;2.60;;;;;;;9.15;54.16;101072.72;5057299;28;20037;-77
2022/01/06 01:30:32;;;;;;;5.22;2.22;;;;;;;9.14;54.01;101076.44;5049643;28;20389;-77
2022/01/06 01:33:00;;;;;;;5.25;2.30;;;;;;;9.12;54.18;101092.75;5048466;28;20144;-77
2022/01/06 01:35:32;;;;;;;6.72;2.42;;;;;;;9.12;54.17;101081.94;5049892;28;20099;-77
2022/01/06 01:37:59;;;;;;;8.07;2.03;;;;;;;9.12;54.19;101086.47;5053167;28;20095;-77
2022/01/06 01:40:26;;;;;;;6.88;2.40;;;;;;;9.12;54.28;101086.47;5050185;28;20179;-77
2022/01/06 01:42:53;;;;;;;7.25;2.30;;;;;;;9.11;54.09;101095.56;5044054;28;20060;-77
2022/01/06 01:45:26;;;;;;;8.77;2.50;;;;;;;9.11;54.01;101098.25;5048906;28;20045;-77
2022/01/06 01:47:53;;;;;;;7.63;2.35;;;;;;;9.09;53.81;101092.91;5050188;28;20079;-77
2022/01/06 01:50:21;;;;;;;9.30;2.13;;;;;;;9.08;53.89;101091.16;5048309;28;20559;-77
2022/01/06 01:52:53;;;;;;;6.78;1.75;;;;;;;9.09;53.73;101102.88;5048091;28;20062;-77
2022/01/06 01:55:32;;;;;;;6.38;2.25;;;;;;;9.08;53.99;101111.97;5049059;28;20065;-77
2022/01/06 01:57:59;;;;;;;6.75;1.98;;;;;;;9.06;53.92;101112.03;5058766;28;20110;-77
2022/01/06 02:00:29;;;;;;;6.32;1.83;;;;;;;9.06;53.65;101112.03;5049071;28;20075;-77
2022/01/06 02:03:02;;;;;;;5.38;1.88;;;;;;;9.05;53.69;101121.16;5057371;28;20048;-77
2022/01/06 02:05:29;;;;;;;4.70;1.58;;;;;;;8.99;53.73;101121.47;5056010;28;20132;-76
2022/01/06 02:07:59;;;;;;;6.13;2.10;;;;;;;9.02;53.87;101123.16;5057100;28;20072;-77
2022/01/06 02:10:27;;;;;;;6.65;1.90;;;;;;;9.00;53.86;101117.81;5047993;28;20081;-77
2022/01/06 02:12:56;;;;;;;7.00;1.70;;;;;;;8.99;53.61;101116.06;5047176;28;20064;-77
2022/01/06 02:15:23;;;;;;;4.50;1.67;;;;;;;8.98;53.88;101126.97;5046756;28;20496;-77
2022/01/06 02:17:50;;;;;;;6.32;1.73;;;;;;;8.96;53.91;101112.66;5052264;28;20049;-77
2022/01/06 02:20:19;;;;;;;5.13;1.85;;;;;;;8.97;53.81;101117.13;5048212;28;20049;-78
2022/01/06 02:22:47;;;;;;;7.45;1.70;;;;;;;8.95;53.96;101111.78;5051728;28;20053;-77
2022/01/06 02:25:16;;;;;;;8.20;1.50;;;;;;;8.96;53.99;101120.78;5048536;28;20385;-77
2022/01/06 02:27:45;;;;;;;6.00;2.33;;;;;;;8.95;53.98;101119.91;5057638;28;20087;-77
2022/01/06 02:30:12;;;;;;;5.55;1.70;;;;;;;8.93;54.15;101113.69;5058212;28;20085;-77
2022/01/06 02:32:39;;;;;;;5.85;1.70;;;;;;;8.94;54.03;101114.59;5048164;28;20064;-77
2022/01/06 02:35:12;;;;;;;8.38;2.15;;;;;;;8.97;53.69;101119.84;5047248;28;20133;-77
2022/01/06 02:37:39;;;;;;;6.88;1.77;;;;;;;8.94;53.73;101117.28;5059231;28;20135;-77
2022/01/06 02:40:15;;;;;;;7.43;2.17;;;;;;;8.95;53.75;101125.34;5049953;28;20078;-77
2022/01/06 02:42:44;;;;;;;5.78;1.85;;;;;;;8.93;53.70;101121.81;5044782;28;20060;-77
2022/01/06 02:45:12;;;;;;;4.57;1.58;;;;;;;8.92;53.86;101116.50;5048136;28;20464;-80
2022/01/06 02:47:40;;;;;;;5.47;1.90;;;;;;;8.92;53.51;101130.03;5060368;28;20514;-79
2022/01/06 02:50:08;;;;;;;6.85;1.73;;;;;;;8.91;53.73;101134.56;5053040;28;20469;-80
2022/01/06 02:52:35;;;;;;;8.05;2.75;;;;;;;8.91;54.01;101133.69;5048624;28;20044;-79
2022/01/06 02:55:02;;;;;;;9.38;2.20;;;;;;;8.90;53.86;101140.06;5056440;28;20110;-80
2022/01/06 02:57:29;;;;;;;5.43;1.80;;;;;;;8.89;54.05;101131.09;5059839;28;20468;-79
2022/01/06 02:59:56;;;;;;;7.18;1.98;;;;;;;8.88;53.67;101140.19;5046714;28;20501;-80
2022/01/06 03:02:22;;;;;;;7.80;2.10;;;;;;;8.88;53.94;101142.88;5054233;28;20139;-80
2022/01/06 03:04:49;;;;;;;5.82;1.70;;;;;;;8.87;54.07;101146.53;5049439;28;20053;-80
2022/01/06 03:07:16;;;;;;;7.22;2.00;;;;;;;8.88;53.77;101148.31;5040266;28;20146;-80
2022/01/06 03:09:43;;;;;;;8.77;2.08;;;;;;;8.87;53.92;101148.38;5052416;28;20081;-77
2022/01/06 03:12:23;;;;;;;7.05;2.13;;;;;;;8.88;53.81;101147.41;5052604;28;20057;-77
2022/01/06 03:14:50;;;;;;;4.53;1.60;;;;;;;8.85;53.78;101153.88;5044035;28;20045;-77
2022/01/06 03:17:16;;;;;;;4.40;1.70;;;;;;;8.87;53.92;101156.50;5064861;28;20068;-79
2022/01/06 03:19:43;;;;;;;8.68;2.10;;;;;;;8.86;53.74;101158.34;5061429;28;20083;-80
2022/01/06 03:22:09;;;;;;;8.65;2.00;;;;;;;8.87;53.96;101164.63;5050124;28;20140;-79
2022/01/06 03:24:36;;;;;;;7.22;2.00;;;;;;;8.86;53.74;101161.03;5061266;28;20144;-80
2022/01/06 03:27:03;;;;;;;10.25;2.17;;;;;;;8.86;53.84;101154.75;5049675;28;20061;-77
2022/01/06 03:29:30;;;;;;;6.68;2.10;;;;;;;8.85;53.73;101161.13;5076850;28;20052;-77
2022/01/06 03:31:58;;;;;;;8.80;3.00;;;;;;;8.83;53.67;101161.19;5075410;28;20080;-77
2022/01/06 03:34:26;;;;;;;10.43;2.08;;;;;;;8.86;53.93;101171.00;5055169;28;20053;-77
2022/01/06 03:36:53;;;;;;;6.15;2.08;;;;;;;8.84;53.75;101168.38;5050288;28;20080;-80
2022/01/06 03:39:19;;;;;;;8.30;2.30;;;;;;;8.83;53.69;101166.59;5054086;28;20122;-80
2022/01/06 03:41:46;;;;;;;5.65;1.65;;;;;;;8.83;53.61;101171.16;5050429;28;20454;-79
2022/01/06 03:44:13;;;;;;;6.03;1.60;;;;;;;8.83;54.14;101173.84;5050792;28;20053;-80
2022/01/06 03:46:40;;;;;;;5.65;1.92;;;;;;;8.83;53.85;101174.72;5059082;28;20049;-79
2022/01/06 03:49:07;;;;;;;6.18;1.85;;;;;;;8.84;53.83;101178.31;5071048;28;20106;-80
2022/01/06 03:51:33;;;;;;;6.97;1.80;;;;;;;8.84;53.94;101181.03;5050314;28;20061;-80
2022/01/06 03:54:00;;;;;;;4.15;1.48;;;;;;;8.84;53.99;101181.03;5058844;28;20088;-80
2022/01/06 03:56:27;;;;;;;5.32;1.60;;;;;;;8.85;53.65;101188.19;5037441;28;20063;-80
2022/01/06 03:58:53;;;;;;;7.90;1.73;;;;;;;8.85;53.84;101186.34;5055852;28;20069;-77
2022/01/06 04:01:20;;;;;;;8.63;2.00;;;;;;;8.86;53.75;101187.25;5052451;28;20488;-77
2022/01/06 04:03:47;;;;;;;4.80;1.85;;;;;;;8.85;53.88;101194.47;5058215;28;20541;-77
2022/01/06 04:06:15;;;;;;;7.97;1.90;;;;;;;8.86;53.93;101192.66;5050331;28;20048;-77
2022/01/06 04:08:44;;;;;;;7.20;2.08;;;;;;;8.85;53.63;101202.59;5049705;28;20102;-78
2022/01/06 04:11:11;;;;;;;6.82;1.80;;;;;;;8.84;53.33;101203.56;5051524;28;20135;-78
2022/01/06 04:13:38;;;;;;;5.38;1.60;;;;;;;8.83;53.84;101206.34;5053695;28;20052;-77
2022/01/06 04:16:11;;;;;;;6.00;1.90;;;;;;;8.82;53.44;101201.88;5055094;28;20044;-78
2022/01/06 04:18:37;;;;;;;6.03;1.80;;;;;;;8.79;53.62;101205.66;5057453;28;20396;-78
2022/01/06 04:21:06;;;;;;;5.78;1.50;;;;;;;8.79;53.39;101208.34;5051313;28;20064;-78
2022/01/06 04:23:33;;;;;;;6.68;1.83;;;;;;;8.80;53.25;101218.22;5051258;28;20469;-77
2022/01/06 04:26:00;;;;;;;7.55;2.13;;;;;;;8.78;53.39;101225.56;5049798;28;20143;-77
2022/01/06 04:28:26;;;;;;;9.00;1.85;;;;;;;8.77;53.35;101227.38;5060090;28;20152;-80
2022/01/06 04:30:53;;;;;;;5.47;1.58;;;;;;;8.75;53.39;101232.00;5051383;28;20049;-79
2022/01/06 04:33:20;;;;;;;7.03;1.92;;;;;;;8.74;53.30;101224.84;5050099;28;20079;-80
2022/01/06 04:35:46;;;;;;;7.65;1.63;;;;;;;8.74;53.38;101221.25;5056946;28;20083;-77
2022/01/06 04:38:13;;;;;;;5.57;1.95;;;;;;;8.73;53.65;101227.63;5049248;28;20069;-77
2022/01/06 04:40:39;;;;;;;7.60;1.75;;;;;;;8.71;53.30;101225.00;5058330;28;20072;-77
2022/01/06 04:43:07;;;;;;;6.30;1.77;;;;;;;8.71;53.34;101230.44;5040836;28;20711;-80
2022/01/06 04:45:35;;;;;;;5.07;2.10;;;;;;;8.71;53.73;101225.00;5045349;28;20111;-80
2022/01/06 04:48:01;;;;;;;7.20;2.13;;;;;;;8.70;53.45;101234.09;5048120;28;20111;-80
2022/01/06 04:50:28;;;;;;;5.55;1.52;;;;;;;8.69;53.57;101235.03;5055516;28;20447;-77
2022/01/06 04:52:55;;;;;;;8.20;2.38;;;;;;;8.70;53.64;101238.63;5048457;28;20479;-77
2022/01/06 04:55:21;;;;;;;6.75;2.03;;;;;;;8.69;53.70;101235.03;5052882;28;20059;-77
2022/01/06 04:57:48;;;;;;;9.27;2.20;;;;;;;8.69;53.77;101247.69;5049543;28;20123;-79
2022/01/06 05:00:15;;;;;;;7.85;1.80;;;;;;;8.69;53.64;101245.88;5050296;28;20102;-80
2022/01/06 05:02:42;;;;;;;7.72;2.05;;;;;;;8.67;53.76;101250.47;5049018;28;20331;-77
2022/01/06 05:05:09;;;;;;;7.18;2.05;;;;;;;8.68;53.18;101248.66;5059468;28;20045;-76
2022/01/06 05:07:35;;;;;;;6.70;1.60;;;;;;;8.66;53.54;101251.44;5050945;28;20045;-77
2022/01/06 05:10:02;;;;;;;5.30;1.77;;;;;;;8.67;53.71;101255.00;5059323;28;20137;-77
2022/01/06 05:12:30;;;;;;;7.05;2.45;;;;;;;8.66;53.46;101254.13;5044508;28;20494;-77
2022/01/06 05:14:57;;;;;;;8.48;2.45;;;;;;;8.65;53.43;101255.09;5057878;28;20090;-78
2022/01/06 05:17:26;;;;;;;8.98;2.25;;;;;;;8.65;53.45;101252.38;5061647;28;20057;-78
2022/01/06 05:19:53;;;;;;;6.43;2.10;;;;;;;8.64;53.41;101257.91;5055941;28;20048;-78
2022/01/06 05:22:19;;;;;;;7.40;2.00;;;;;;;8.64;53.44;101266.91;5045745;28;20081;-78
2022/01/06 05:24:46;;;;;;;6.32;1.90;;;;;;;8.64;53.22;101268.72;5059618;28;20113;-78
2022/01/06 05:27:13;;;;;;;8.07;1.80;;;;;;;8.62;53.40;101266.09;5060433;28;20257;-78
2022/01/06 05:29:39;;;;;;;6.28;1.80;;;;;;;8.61;53.43;101275.16;5051984;28;20410;-78
2022/01/06 05:32:06;;;;;;;5.50;1.92;;;;;;;8.61;53.42;101274.28;5049089;28;20457;-78
2022/01/06 05:34:33;;;;;;;9.23;2.20;;;;;;;8.58;53.39;101277.16;5051790;28;20053;-78
2022/01/06 05:37:00;;;;;;;7.57;2.30;;;;;;;8.58;53.60;101279.84;5048907;28;20076;-78
2022/01/06 05:39:26;;;;;;;5.03;2.00;;;;;;;8.57;53.36;101278.97;5049149;28;20063;-77
2022/01/06 05:41:53;;;;;;;5.70;1.90;;;;;;;8.57;53.29;101281.69;5031900;28;20122;-77
2022/01/06 05:44:20;;;;;;;5.78;2.72;;;;;;;8.56;53.38;101292.63;5043182;28;20322;-77
2022/01/06 05:46:47;;;;;;;7.80;1.98;;;;;;;8.55;53.15;101293.56;5053152;28;20103;-77
2022/01/06 05:49:15;;;;;;;8.57;1.80;;;;;;;8.54;53.24;101297.22;5040114;28;20484;-77
2022/01/06 05:51:43;;;;;;;6.28;1.85;;;;;;;8.54;53.43;101302.63;5046140;28;20132;-78
2022/01/06 05:54:09;;;;;;;9.02;2.38;;;;;;;8.51;53.41;101303.66;5051386;28;20055;-78
2022/01/06 05:56:36;;;;;;;7.53;2.10;;;;;;;8.51;53.27;101309.06;5051840;28;20296;-79
2022/01/06 05:59:03;;;;;;;7.00;2.20;;;;;;;8.48;53.39;101309.25;5053182;28;20068;-78
2022/01/06 06:01:29;;;;;;;6.35;2.10;;;;;;;8.48;53.22;101308.38;5057355;28;20053;-77
2022/01/06 06:03:56;;;;;;;6.88;2.05;;;;;;;8.47;53.13;101312.03;5048520;28;20064;-78
2022/01/06 06:06:23;;;;;;;7.50;2.30;;;;;;;8.45;52.91;101324.75;5058320;28;20074;-78
2022/01/06 06:08:50;;;;;;;10.20;2.30;;;;;;;8.44;53.25;101321.16;5039761;28;20128;-77
2022/01/06 06:11:17;;;;;;;8.85;2.28;;;;;;;8.43;52.93;101324.81;5042889;28;20093;-78
2022/01/06 06:13:43;;;;;;;6.85;2.05;;;;;;;8.41;53.09;101324.00;5045961;28;20075;-77
2022/01/06 06:16:10;;;;;;;7.90;2.60;;;;;;;8.38;53.15;101332.31;5058820;28;20086;-78
2022/01/06 06:18:37;;;;;;;8.85;2.33;;;;;;;8.35;53.34;101336.03;5053254;28;20064;-78
2022/01/06 06:21:06;;;;;;;8.55;2.53;;;;;;;8.37;53.30;101341.38;5049444;28;20057;-78
2022/01/06 06:23:32;;;;;;;8.70;2.25;;;;;;;8.35;53.02;101348.69;5052940;28;20061;-78
2022/01/06 06:25:59;;;;;;;7.18;2.38;;;;;;;8.35;53.21;101348.69;5059234;28;20106;-78
2022/01/06 06:28:25;;;;;;;6.25;2.17;;;;;;;8.34;53.46;101350.50;5062223;28;20077;-77
2022/01/06 06:30:52;;;;;;;6.43;2.35;;;;;;;8.33;53.52;101351.44;5066433;28;20055;-78
2022/01/06 06:33:19;;;;;;;6.72;2.50;;;;;;;8.34;53.46;101358.63;5052591;28;20180;-78
2022/01/06 06:35:45;;;;;;;8.27;2.53;;;;;;;8.33;53.42;101354.16;5057024;28;20091;-77
2022/01/06 06:38:12;;;;;;;5.38;2.08;;;;;;;8.32;53.42;101368.63;5054626;28;20072;-77
2022/01/06 06:40:39;;;;;;;5.45;2.45;;;;;;;8.33;53.61;101362.28;5046174;28;20461;-77
2022/01/06 06:43:10;;;;;;;7.63;2.38;;;;;;;8.33;53.60;101366.81;5052777;28;20049;-77
2022/01/06 06:45:37;;;;;;;7.55;2.38;;;;;;;8.33;53.22;101364.09;5051728;28;20049;-77
2022/01/06 06:48:03;;;;;;;6.22;2.45;;;;;;;8.32;53.32;101373.16;5045476;28;20115;-77
2022/01/06 06:50:30;;;;;;;6.80;2.40;;;;;;;8.31;53.53;101366.91;5044165;28;20136;-77
2022/01/06 06:52:57;;;;;;;9.05;2.70;;;;;;;8.31;53.47;101379.56;5050892;28;20052;-77
2022/01/06 06:55:23;;;;;;;6.22;2.53;;;;;;;8.29;53.18;101376.88;5051801;28;20484;-77
2022/01/06 06:57:50;;;;;;;7.35;3.03;;;;;;;8.29;53.11;101379.59;5064295;28;20045;-77
2022/01/06 07:00:17;;;;;;;6.60;3.00;;;;;;;8.29;53.17;101384.13;5052769;28;20472;-77
2022/01/06 07:02:44;;;;;;;10.10;3.00;;;;;;;8.27;53.25;101389.59;5058878;28;20053;-77
2022/01/06 07:05:11;;;;;;;7.03;3.22;;;;;;;8.27;53.17;101396.84;5063546;28;20049;-77
2022/01/06 07:07:38;;;;;;;7.22;3.20;;;;;;;8.25;53.00;101398.72;5055279;28;20057;-77
2022/01/06 07:10:05;;;;;;;5.90;2.88;;;;;;;8.24;53.37;101405.09;5045331;28;20547;-77
2022/01/06 07:12:32;;;;;;;11.25;3.22;;;;;;;8.23;53.29;101403.38;5060590;28;20049;-77
2022/01/06 07:15:00;;;;;;;7.80;3.22;;;;;;;8.24;53.04;101410.50;5041030;28;20049;-76
2022/01/06 07:17:27;;;;;;;8.13;3.40;;;;;;;8.21;53.25;101406.13;5053372;28;20114;-77
2022/01/06 07:19:53;;;;;;;6.55;2.78;;;;;;;8.20;53.24;101409.78;5053094;28;20316;-77
2022/01/06 07:22:20;;;;;;;9.20;3.17;;;;;;;8.19;53.30;101412.56;5055074;28;20581;-77
2022/01/06 07:24:46;;;;;;;9.65;3.00;;;;;;;8.18;53.34;101416.22;5051121;28;20080;-77
2022/01/06 07:27:13;;;;;;;7.82;3.63;;;;;;;8.19;53.29;101423.38;5057991;28;20075;-77
2022/01/06 07:29:40;;;;;;;8.30;3.63;;;;;;;8.18;53.35;101430.63;5064149;28;20132;-77
2022/01/06 07:32:07;;;;;;;7.65;3.33;;;;;;;8.19;53.69;101431.50;5047767;28;20144;-77
2022/01/06 07:34:33;;;;;;;11.07;2.90;;;;;;;8.19;53.58;101434.19;5050926;28;20060;-77
2022/01/06 07:37:01;;;;;;;7.63;3.10;;;;;;;8.19;53.50;101439.59;5057172;28;20063;-77
2022/01/06 07:39:28;;;;;;;8.77;2.75;;;;;;;8.18;53.49;101446.84;5058207;28;20052;-77
2022/01/06 07:41:56;;;;;;;9.27;2.75;;;;;;;8.18;53.41;101454.97;5051209;28;20053;-79
2022/01/06 07:44:22;;;;;;;9.10;2.60;;;;;;;8.18;53.31;101454.06;5045227;28;21347;-77
2022/01/06 07:46:49;;;;;;;9.25;2.85;;;;;;;8.17;53.60;101458.59;5049247;28;20056;-76
2022/01/06 07:49:16;;;;;;;6.07;2.60;;;;;;;8.18;53.51;101462.19;5058957;28;20423;-76
2022/01/06 07:51:43;;;;;;;7.13;3.03;;;;;;;8.16;53.59;101462.25;5049730;28;20053;-76
2022/01/06 07:54:10;;;;;;;9.45;2.88;;;;;;;8.16;53.63;101462.25;5054154;28;20053;-75
2022/01/06 07:56:37;;;;;;;7.10;3.10;;;;;;;8.16;53.55;101478.47;5050168;28;20499;-76
2022/01/06 07:59:03;;;;;;;9.10;2.90;;;;;;;8.17;53.68;101482.06;5042941;28;20045;-76
2022/01/06 08:01:30;;;;;;;7.05;2.85;;;;;;;8.17;53.42;101482.06;5050553;28;20082;-76
2022/01/06 08:03:57;;;;;;;8.20;2.60;;;;;;;8.18;53.68;101487.41;5049897;28;20040;-76
2022/01/06 08:06:24;;;;;;;7.05;2.80;;;;;;;8.18;53.62;101487.41;5049698;28;20119;-76
2022/01/06 08:08:50;;;;;;;6.28;2.38;;;;;;;8.19;53.56;101488.28;5055010;28;20079;-76
2022/01/06 08:11:17;;;;;;;7.35;2.30;;;;;;;8.19;53.61;101491.88;5050285;28;20060;-77
2022/01/06 08:13:48;;;;;;;7.15;2.78;;;;;;;8.20;53.73;101492.75;5052626;28;20136;-76
2022/01/06 08:16:15;;;;;;;6.88;2.88;;;;;;;8.20;53.73;101490.06;5039111;28;20152;-76
2022/01/06 08:18:41;;;;;;;6.93;2.58;;;;;;;8.20;53.61;101490.94;5050399;28;20102;-76
2022/01/06 08:21:08;;;;;;;5.18;2.50;;;;;;;8.20;53.84;101493.63;5050648;28;20374;-76
2022/01/06 08:23:35;;;;;;;8.75;3.13;;;;;;;8.21;53.83;101499.94;5049231;28;20053;-77
2022/01/06 08:26:01;;;;;;;8.52;3.05;;;;;;;8.20;53.67;101501.75;5047313;28;20471;-77
2022/01/06 08:28:28;;;;;;;7.97;3.00;;;;;;;8.20;53.75;101509.88;5057213;28;20102;-77
2022/01/06 08:30:56;;;;;;;8.57;3.20;;;;;;;8.21;53.66;101508.91;5055014;28;20075;-77
2022/01/06 08:33:23;;;;;;;7.35;3.10;;;;;;;8.20;53.26;101526.09;5054382;28;20056;-77
2022/01/06 08:35:49;;;;;;;7.78;3.25;;;;;;;8.20;53.58;101519.81;5043134;28;20744;-77
2022/01/06 08:38:16;;;;;;;6.03;3.10;;;;;;;8.19;53.56;101526.16;5053586;28;20061;-78
2022/01/06 08:40:43;;;;;;;6.55;2.88;;;;;;;8.18;53.73;101533.41;5050524;28;20084;-77
2022/01/06 08:43:09;;;;;;;7.95;3.00;;;;;;;8.18;53.37;101538.81;5052018;28;20106;-78
2022/01/06 08:45:36;;;;;;;9.63;3.58;;;;;;;8.19;53.58;101531.56;5049547;28;20079;-77
2022/01/06 08:48:03;;;;;;;6.75;3.15;;;;;;;8.17;53.70;101528.06;5053651;28;20056;-77
2022/01/06 08:50:30;;;;;;;9.50;3.33;;;;;;;8.17;53.58;101523.53;5054585;28;20049;-78
2022/01/06 08:52:57;;;;;;;6.20;3.25;;;;;;;8.19;53.70;101532.44;5041063;28;20131;-77
2022/01/06 08:55:26;;;;;;;7.55;3.10;;;;;;;8.20;53.90;101527.91;5049827;28;20522;-77
2022/01/06 08:57:57;;;;;;;17.98;9.38;;;;;;;8.20;53.99;101531.50;5050621;28;20095;-77
2022/01/06 09:00:24;;;;;;;20.02;8.63;;;;;;;8.22;53.69;101536.84;5052429;28;20115;-77
2022/01/06 09:02:50;;;;;;;11.98;5.57;;;;;;;8.22;53.90;101543.16;5049427;28;20095;-77
2022/01/06 09:05:17;;;;;;;9.10;3.88;;;;;;;8.24;54.06;101541.22;5052852;28;20049;-77
2022/01/06 09:07:44;;;;;;;6.13;3.35;;;;;;;8.26;53.77;101542.03;5048733;28;20063;-77
2022/01/06 09:10:11;;;;;;;7.35;3.50;;;;;;;8.28;53.98;101542.84;5055341;28;20151;-76
2022/01/06 09:12:38;;;;;;;9.15;3.40;;;;;;;8.29;54.35;101552.72;5049949;28;20103;-77
2022/01/06 09:15:07;;;;;;;10.80;3.50;;;;;;;8.31;53.83;101542.75;5049906;28;20118;-77
2022/01/06 09:17:36;;;;;;;10.25;4.30;;;;;;;8.32;54.23;101547.19;5050924;28;20060;-77
2022/01/06 09:20:07;;;;;;;7.65;4.10;;;;;;;8.36;53.87;101553.34;5060917;28;20091;-77
2022/01/06 09:22:39;;;;;;;10.05;3.75;;;;;;;8.35;54.11;101557.00;5039640;28;20143;-77
2022/01/06 09:25:06;;;;;;;11.20;4.30;;;;;;;8.36;53.88;101556.06;5060651;28;20056;-77
2022/01/06 09:27:33;;;;;;;10.68;4.13;;;;;;;8.37;54.11;101558.69;5050963;28;20056;-78
2022/01/06 09:30:02;;;;;;;11.57;4.20;;;;;;;8.38;54.12;101555.03;5056309;28;20049;-77
2022/01/06 09:32:29;;;;;;;7.93;4.10;;;;;;;8.40;54.30;101547.69;5054166;28;20146;-77
2022/01/06 09:34:55;;;;;;;7.88;3.90;;;;;;;8.42;54.31;101552.16;5050916;28;20102;-78
2022/01/06 09:37:22;;;;;;;9.18;4.30;;;;;;;8.44;54.18;101551.16;5049475;28;20057;-77
2022/01/06 09:39:50;;;;;;;9.65;4.47;;;;;;;8.47;54.23;101552.84;5050965;28;20131;-79
2022/01/06 09:42:18;;;;;;;8.80;4.25;;;;;;;8.50;54.32;101571.63;5048587;28;20675;-78
2022/01/06 09:44:50;;;;;;;12.25;4.53;;;;;;;8.53;54.47;101568.78;5050562;28;20078;-78
2022/01/06 09:47:18;;;;;;;9.73;4.63;;;;;;;8.54;54.57;101574.13;5048268;28;20151;-78
2022/01/06 09:50:06;;;;;;;10.93;4.68;;;;;;;8.57;54.35;101578.50;5048568;28;20396;-78
2022/01/06 09:52:34;;;;;;;9.73;5.15;;;;;;;8.59;54.39;101576.63;5024332;28;20080;-78
2022/01/06 09:55:04;;;;;;;9.65;4.60;;;;;;;8.61;54.48;101578.31;5058150;28;20507;-79
2022/01/06 09:57:32;;;;;;;11.88;5.47;;;;;;;8.62;54.69;101577.38;5045335;28;20110;-78
2022/01/06 09:59:58;;;;;;;11.43;5.45;;;;;;;8.66;54.61;101578.97;5051134;28;20493;-78
2022/01/06 10:02:36;;;;;;;9.50;5.10;;;;;;;8.71;54.24;101574.22;5046319;28;20065;-78
2022/01/06 10:05:04;;;;;;;9.00;5.13;;;;;;;8.70;54.20;101575.16;5053772;28;20422;-78
2022/01/06 10:07:39;;;;;;;9.07;4.53;;;;;;;8.75;54.30;101574.94;5047949;28;20132;-77
2022/01/06 10:10:08;;;;;;;12.80;5.65;;;;;;;8.77;54.51;101575.75;5050997;28;20081;-78
2022/01/06 10:12:38;;;;;;;11.35;5.03;;;;;;;8.78;54.35;101570.25;5044880;28;20057;-77
2022/01/06 10:15:17;;;;;;;10.93;4.70;;;;;;;8.85;54.22;101575.38;5054026;28;20095;-77
2022/01/06 10:17:45;;;;;;;12.52;5.28;;;;;;;8.87;54.37;101581.59;5054473;28;20045;-78
2022/01/06 10:20:14;;;;;;;9.68;5.07;;;;;;;8.91;54.37;101573.25;5059048;28;20045;-78
2022/01/06 10:22:47;;;;;;;10.15;5.50;;;;;;;8.95;54.32;101580.28;5055474;28;20052;-78
2022/01/06 10:25:16;;;;;;;10.80;5.45;;;;;;;8.96;54.27;101575.75;5053977;28;20045;-78
2022/01/06 10:27:44;;;;;;;9.70;4.55;;;;;;;8.99;54.36;101576.47;5047490;28;20045;-78
2022/01/06 10:30:13;;;;;;;11.27;5.18;;;;;;;9.04;54.36;101584.38;5057374;28;20044;-77
2022/01/06 10:32:40;;;;;;;9.18;5.13;;;;;;;9.08;54.02;101577.84;5048549;28;20052;-78
2022/01/06 10:35:09;;;;;;;8.63;4.80;;;;;;;9.11;53.96;101577.69;5052738;28;20101;-77
2022/01/06 10:37:41;;;;;;;9.57;4.43;;;;;;;9.13;53.45;101582.09;5053349;28;20053;-77
2022/01/06 10:40:09;;;;;;;9.60;4.90;;;;;;;9.13;53.70;101589.34;5052452;28;20060;-78
2022/01/06 10:42:39;;;;;;;9.32;4.65;;;;;;;9.15;53.68;101582.00;5047744;28;20260;-78
2022/01/06 10:45:11;;;;;;;8.57;4.80;;;;;;;9.15;53.60;101582.00;5042699;28;20472;-78
2022/01/06 10:47:40;;;;;;;10.45;5.13;;;;;;;9.15;53.57;101588.28;5047680;28;20060;-78
2022/01/06 10:50:10;;;;;;;11.63;5.10;;;;;;;9.14;53.78;101582.97;5048745;28;20045;-78
2022/01/06 10:52:39;;;;;;;10.63;4.63;;;;;;;9.16;53.81;101584.63;5029974;28;20052;-78
2022/01/06 10:55:10;;;;;;;10.10;5.25;;;;;;;9.19;53.80;101585.44;5046625;28;20107;-78
2022/01/06 10:57:59;;;;;;;10.75;5.20;;;;;;;9.20;53.70;101581.78;5043172;28;20069;-78
2022/01/06 11:00:29;;;;;;;10.35;5.28;;;;;;;9.21;54.08;101580.84;5051182;28;20045;-78
2022/01/06 11:03:20;;;;;;;10.48;5.25;;;;;;;9.25;53.80;101579.72;5044828;28;20505;-79
2022/01/06 11:05:53;;;;;;;11.57;6.35;;;;;;;9.28;53.89;101572.31;5063038;28;20052;-79
2022/01/06 11:08:24;;;;;;;10.98;5.60;;;;;;;9.31;54.28;101571.28;5054746;28;20067;-79
2022/01/06 11:13:33;;;;;;;9.40;5.10;;;;;;;9.44;54.28;101569.72;5052387;28;20385;-78
2022/01/06 11:16:01;;;;;;;8.52;4.97;;;;;;;9.48;54.35;101568.59;5051823;28;20052;-79
2022/01/06 11:18:28;;;;;;;9.25;4.68;;;;;;;9.52;54.49;101562.06;5052481;28;20057;-79
2022/01/06 11:21:35;;;;;;;10.88;5.22;;;;;;;9.57;53.81;101575.38;5059333;28;20094;-79
2022/01/06 11:24:14;;;;;;;11.52;4.60;;;;;;;9.64;53.79;101576.81;5028594;28;20049;-78
2022/01/06 11:26:56;;;;;;;9.50;4.70;;;;;;;9.65;54.04;101565.91;5050257;28;20080;-78
2022/01/06 11:29:28;;;;;;;9.43;5.05;;;;;;;9.72;53.87;101572.75;5056610;28;20048;-78
2022/01/06 11:31:56;;;;;;;9.73;4.45;;;;;;;9.73;54.40;101577.22;5053349;28;20118;-78
2022/01/06 11:34:27;;;;;;;8.93;4.57;;;;;;;9.79;54.21;101578.75;5050814;28;20045;-79
2022/01/06 11:36:55;;;;;;;9.38;4.53;;;;;;;9.84;53.93;101579.38;5053064;28;20384;-78
2022/01/06 11:39:31;;;;;;;11.70;5.35;;;;;;;9.89;53.68;101580.88;5051197;28;20049;-78
2022/01/06 11:41:59;;;;;;;9.25;4.85;;;;;;;9.92;53.88;101579.84;5051544;28;20053;-78